sensor_id;sensor_type;location;lat;lon;timestamp;P1;P2;P0
76679;PMS5003;65597;51.520;-0.224;2023-09-19T00:00:00;3;3;
76679;PMS5003;65597;51.520;-0.224;2023-09-19T00:02:24;4;3;
76679;PMS5003;65597;51.520;-0.224;2023-09-19T00:04:50;2;2;
76679;PMS5003;65597;51.520;-0.224;2023-09-19T00:07:15;1;0;
76679;PMS5003;65597;51.520;-0.224;2023-09-19T00:09:41;5;3;
76679;PMS5003;65597;51.520;-0.224;2023-09-19T00:12:07;2;2;
76679;PMS5003;65597;51.520;-0.224;2023-09-19T00:14:31;2;2;
76679;PMS5003;65597;51.520;-0.224;2023-09-19T00:16:56;3;2;
76679;PMS5003;65597;51.520;-0.224;2023-09-19T00:19:22;4;3;
76679;PMS5003;65597;51.520;-0.224;2023-09-19T00:21:47;2;2;
76679;PMS5003;65597;51.520;-0.224;2023-09-19T00:24:12;3;3;
76679;PMS5003;65597;51.520;-0.224;2023-09-19T00:26:37;3;1;
76679;PMS5003;65597;51.520;-0.224;2023-09-19T00:29:02;3;1;
76679;PMS5003;65597;51.520;-0.224;2023-09-19T00:31:28;2;2;
76679;PMS5003;65597;51.520;-0.224;2023-09-19T00:33:53;1;1;
76679;PMS5003;65597;51.520;-0.224;2023-09-19T00:36:20;1;1;
76679;PMS5003;65597;51.520;-0.224;2023-09-19T00:38:44;2;1;
76679;PMS5003;65597;51.520;-0.224;2023-09-19T00:41:09;3;2;
76679;PMS5003;65597;51.520;-0.224;2023-09-19T00:43:35;3;3;
76679;PMS5003;65597;51.520;-0.224;2023-09-19T00:46:00;4;2;
76679;PMS5003;65597;51.520;-0.224;2023-09-19T00:48:27;1;1;
76679;PMS5003;65597;51.520;-0.224;2023-09-19T00:50:51;3;3;
76679;PMS5003;65597;51.520;-0.224;2023-09-19T00:53:17;3;3;
76679;PMS5003;65597;51.520;-0.224;2023-09-19T00:55:41;4;2;
76679;PMS5003;65597;51.520;-0.224;2023-09-19T00:58:07;4;2;
76679;PMS5003;65597;51.520;-0.224;2023-09-19T01:00:32;2;2;
76679;PMS5003;65597;51.520;-0.224;2023-09-19T01:02:57;4;2;
76679;PMS5003;65597;51.520;-0.224;2023-09-19T01:05:23;4;3;
76679;PMS5003;65597;51.520;-0.224;2023-09-19T01:07:48;6;2;
76679;PMS5003;65597;51.520;-0.224;2023-09-19T01:10:14;6;2;
76679;PMS5003;65597;51.520;-0.224;2023-09-19T01:12:45;8;3;
76679;PMS5003;65597;51.520;-0.224;2023-09-19T01:15:06;0;0;
76679;PMS5003;65597;51.520;-0.224;2023-09-19T01:17:30;2;1;
76679;PMS5003;65597;51.520;-0.224;2023-09-19T01:20:03;4;2;
76679;PMS5003;65597;51.520;-0.224;2023-09-19T01:22:21;3;2;
76679;PMS5003;65597;51.520;-0.224;2023-09-19T01:24:55;3;3;
76679;PMS5003;65597;51.520;-0.224;2023-09-19T01:27:25;5;4;
76679;PMS5003;65597;51.520;-0.224;2023-09-19T01:29:37;3;3;
76679;PMS5003;65597;51.520;-0.224;2023-09-19T01:32:01;3;1;
76679;PMS5003;65597;51.520;-0.224;2023-09-19T01:34:26;3;2;
76679;PMS5003;65597;51.520;-0.224;2023-09-19T01:36:53;7;5;
76679;PMS5003;65597;51.520;-0.224;2023-09-19T01:39:17;1;0;
76679;PMS5003;65597;51.520;-0.224;2023-09-19T01:41:48;4;3;
76679;PMS5003;65597;51.520;-0.224;2023-09-19T01:44:08;6;3;
76679;PMS5003;65597;51.520;-0.224;2023-09-19T01:46:33;3;2;
76679;PMS5003;65597;51.520;-0.224;2023-09-19T01:49:01;4;2;
76679;PMS5003;65597;51.520;-0.224;2023-09-19T01:51:25;4;2;
76679;PMS5003;65597;51.520;-0.224;2023-09-19T01:53:50;2;1;
76679;PMS5003;65597;51.520;-0.224;2023-09-19T01:56:16;2;2;
76679;PMS5003;65597;51.520;-0.224;2023-09-19T01:58:41;2;2;
76679;PMS5003;65597;51.520;-0.224;2023-09-19T02:01:07;8;5;
76679;PMS5003;65597;51.520;-0.224;2023-09-19T02:03:30;6;5;
76679;PMS5003;65597;51.520;-0.224;2023-09-19T02:05:55;6;2;
76679;PMS5003;65597;51.520;-0.224;2023-09-19T02:08:20;3;2;
76679;PMS5003;65597;51.520;-0.224;2023-09-19T02:10:46;2;2;
76679;PMS5003;65597;51.520;-0.224;2023-09-19T02:13:11;5;2;
76679;PMS5003;65597;51.520;-0.224;2023-09-19T02:15:36;2;1;
76679;PMS5003;65597;51.520;-0.224;2023-09-19T02:18:02;5;3;
76679;PMS5003;65597;51.520;-0.224;2023-09-19T02:20:27;5;5;
76679;PMS5003;65597;51.520;-0.224;2023-09-19T02:22:52;2;2;
76679;PMS5003;65597;51.520;-0.224;2023-09-19T02:25:18;4;3;
76679;PMS5003;65597;51.520;-0.224;2023-09-19T02:27:43;7;4;
76679;PMS5003;65597;51.520;-0.224;2023-09-19T02:30:08;4;2;
76679;PMS5003;65597;51.520;-0.224;2023-09-19T02:32:33;5;5;
76679;PMS5003;65597;51.520;-0.224;2023-09-19T02:34:59;5;3;
76679;PMS5003;65597;51.520;-0.224;2023-09-19T02:37:24;6;3;
76679;PMS5003;65597;51.520;-0.224;2023-09-19T02:39:49;3;2;
76679;PMS5003;65597;51.520;-0.224;2023-09-19T02:42:15;4;2;
76679;PMS5003;65597;51.520;-0.224;2023-09-19T02:44:40;5;4;
76679;PMS5003;65597;51.520;-0.224;2023-09-19T02:47:05;4;4;
76679;PMS5003;65597;51.520;-0.224;2023-09-19T02:49:32;3;3;
76679;PMS5003;65597;51.520;-0.224;2023-09-19T02:51:56;3;3;
76679;PMS5003;65597;51.520;-0.224;2023-09-19T02:54:22;1;1;
76679;PMS5003;65597;51.520;-0.224;2023-09-19T02:56:47;3;3;
76679;PMS5003;65597;51.520;-0.224;2023-09-19T02:59:12;3;2;
76679;PMS5003;65597;51.520;-0.224;2023-09-19T03:01:38;5;4;
76679;PMS5003;65597;51.520;-0.224;2023-09-19T03:04:03;6;3;
76679;PMS5003;65597;51.520;-0.224;2023-09-19T03:06:28;7;4;
76679;PMS5003;65597;51.520;-0.224;2023-09-19T03:08:54;5;2;
76679;PMS5003;65597;51.520;-0.224;2023-09-19T03:11:19;2;1;
76679;PMS5003;65597;51.520;-0.224;2023-09-19T03:13:50;3;2;
76679;PMS5003;65597;51.520;-0.224;2023-09-19T03:16:10;3;2;
76679;PMS5003;65597;51.520;-0.224;2023-09-19T03:18:35;3;2;
76679;PMS5003;65597;51.520;-0.224;2023-09-19T03:21:00;5;3;
76679;PMS5003;65597;51.520;-0.224;2023-09-19T03:23:26;4;3;
76679;PMS5003;65597;51.520;-0.224;2023-09-19T03:25:51;7;5;
76679;PMS5003;65597;51.520;-0.224;2023-09-19T03:28:16;5;3;
76679;PMS5003;65597;51.520;-0.224;2023-09-19T03:30:42;3;2;
76679;PMS5003;65597;51.520;-0.224;2023-09-19T03:33:07;4;2;
76679;PMS5003;65597;51.520;-0.224;2023-09-19T03:35:33;2;2;
76679;PMS5003;65597;51.520;-0.224;2023-09-19T03:38:00;2;2;
76679;PMS5003;65597;51.520;-0.224;2023-09-19T03:40:24;6;3;
76679;PMS5003;65597;51.520;-0.224;2023-09-19T03:42:49;4;2;
76679;PMS5003;65597;51.520;-0.224;2023-09-19T03:45:15;5;3;
76679;PMS5003;65597;51.520;-0.224;2023-09-19T03:47:40;1;1;
76679;PMS5003;65597;51.520;-0.224;2023-09-19T03:50:06;7;4;
76679;PMS5003;65597;51.520;-0.224;2023-09-19T03:52:30;2;1;
76679;PMS5003;65597;51.520;-0.224;2023-09-19T03:54:55;9;2;
76679;PMS5003;65597;51.520;-0.224;2023-09-19T03:57:20;2;2;
76679;PMS5003;65597;51.520;-0.224;2023-09-19T03:59:46;4;2;
76679;PMS5003;65597;51.520;-0.224;2023-09-19T04:02:11;5;2;
76679;PMS5003;65597;51.520;-0.224;2023-09-19T04:04:37;5;4;
76679;PMS5003;65597;51.520;-0.224;2023-09-19T04:07:02;5;3;
76679;PMS5003;65597;51.520;-0.224;2023-09-19T04:09:28;8;4;
76679;PMS5003;65597;51.520;-0.224;2023-09-19T04:11:53;3;2;
76679;PMS5003;65597;51.520;-0.224;2023-09-19T04:14:20;6;2;
76679;PMS5003;65597;51.520;-0.224;2023-09-19T04:16:43;3;3;
76679;PMS5003;65597;51.520;-0.224;2023-09-19T04:19:09;7;3;
76679;PMS5003;65597;51.520;-0.224;2023-09-19T04:21:34;3;2;
76679;PMS5003;65597;51.520;-0.224;2023-09-19T04:23:59;1;1;
76679;PMS5003;65597;51.520;-0.224;2023-09-19T04:26:24;3;3;
76679;PMS5003;65597;51.520;-0.224;2023-09-19T04:28:49;2;2;
76679;PMS5003;65597;51.520;-0.224;2023-09-19T04:31:15;3;3;
76679;PMS5003;65597;51.520;-0.224;2023-09-19T04:33:40;4;2;
76679;PMS5003;65597;51.520;-0.224;2023-09-19T04:36:05;4;3;
76679;PMS5003;65597;51.520;-0.224;2023-09-19T04:38:32;3;3;
76679;PMS5003;65597;51.520;-0.224;2023-09-19T04:40:56;9;3;
76679;PMS5003;65597;51.520;-0.224;2023-09-19T04:43:22;3;2;
76679;PMS5003;65597;51.520;-0.224;2023-09-19T04:45:47;2;2;
76679;PMS5003;65597;51.520;-0.224;2023-09-19T04:48:12;5;2;
76679;PMS5003;65597;51.520;-0.224;2023-09-19T04:50:37;4;3;
76679;PMS5003;65597;51.520;-0.224;2023-09-19T04:53:03;2;2;
76679;PMS5003;65597;51.520;-0.224;2023-09-19T04:55:28;2;2;
76679;PMS5003;65597;51.520;-0.224;2023-09-19T04:57:54;2;1;
76679;PMS5003;65597;51.520;-0.224;2023-09-19T05:00:19;2;1;
76679;PMS5003;65597;51.520;-0.224;2023-09-19T05:02:44;1;1;
76679;PMS5003;65597;51.520;-0.224;2023-09-19T05:05:10;4;2;
76679;PMS5003;65597;51.520;-0.224;2023-09-19T05:07:35;3;1;
76679;PMS5003;65597;51.520;-0.224;2023-09-19T05:10:01;4;2;
76679;PMS5003;65597;51.520;-0.224;2023-09-19T05:12:26;5;3;
76679;PMS5003;65597;51.520;-0.224;2023-09-19T05:14:52;2;2;
76679;PMS5003;65597;51.520;-0.224;2023-09-19T05:17:16;3;1;
76679;PMS5003;65597;51.520;-0.224;2023-09-19T05:19:41;3;2;
76679;PMS5003;65597;51.520;-0.224;2023-09-19T05:22:07;3;2;
76679;PMS5003;65597;51.520;-0.224;2023-09-19T05:24:32;4;2;
76679;PMS5003;65597;51.520;-0.224;2023-09-19T05:26:59;5;3;
76679;PMS5003;65597;51.520;-0.224;2023-09-19T05:29:23;5;1;
76679;PMS5003;65597;51.520;-0.224;2023-09-19T05:31:48;2;2;
76679;PMS5003;65597;51.520;-0.224;2023-09-19T05:34:13;4;2;
76679;PMS5003;65597;51.520;-0.224;2023-09-19T05:36:38;5;4;
76679;PMS5003;65597;51.520;-0.224;2023-09-19T05:39:05;1;1;
76679;PMS5003;65597;51.520;-0.224;2023-09-19T05:41:29;6;4;
76679;PMS5003;65597;51.520;-0.224;2023-09-19T05:43:55;2;2;
76679;PMS5003;65597;51.520;-0.224;2023-09-19T05:46:20;3;2;
76679;PMS5003;65597;51.520;-0.224;2023-09-19T05:48:45;2;1;
76679;PMS5003;65597;51.520;-0.224;2023-09-19T05:51:12;4;3;
76679;PMS5003;65597;51.520;-0.224;2023-09-19T05:53:36;3;3;
76679;PMS5003;65597;51.520;-0.224;2023-09-19T05:56:01;4;2;
76679;PMS5003;65597;51.520;-0.224;2023-09-19T05:58:26;5;2;
76679;PMS5003;65597;51.520;-0.224;2023-09-19T06:00:52;4;1;
76679;PMS5003;65597;51.520;-0.224;2023-09-19T06:03:17;3;2;
76679;PMS5003;65597;51.520;-0.224;2023-09-19T06:05:42;0;0;
76679;PMS5003;65597;51.520;-0.224;2023-09-19T06:08:07;3;3;
76679;PMS5003;65597;51.520;-0.224;2023-09-19T06:10:33;4;2;
76679;PMS5003;65597;51.520;-0.224;2023-09-19T06:12:58;6;2;
76679;PMS5003;65597;51.520;-0.224;2023-09-19T06:15:24;6;1;
76679;PMS5003;65597;51.520;-0.224;2023-09-19T06:17:50;3;1;
76679;PMS5003;65597;51.520;-0.224;2023-09-19T06:20:15;2;2;
76679;PMS5003;65597;51.520;-0.224;2023-09-19T06:22:40;2;0;
76679;PMS5003;65597;51.520;-0.224;2023-09-19T06:25:05;6;1;
76679;PMS5003;65597;51.520;-0.224;2023-09-19T06:27:31;4;2;
76679;PMS5003;65597;51.520;-0.224;2023-09-19T06:29:56;4;1;
76679;PMS5003;65597;51.520;-0.224;2023-09-19T06:32:26;8;5;
76679;PMS5003;65597;51.520;-0.224;2023-09-19T06:34:51;2;2;
76679;PMS5003;65597;51.520;-0.224;2023-09-19T06:37:12;2;2;
76679;PMS5003;65597;51.520;-0.224;2023-09-19T06:39:38;4;3;
76679;PMS5003;65597;51.520;-0.224;2023-09-19T06:42:04;4;2;
76679;PMS5003;65597;51.520;-0.224;2023-09-19T06:44:28;3;2;
76679;PMS5003;65597;51.520;-0.224;2023-09-19T06:46:54;1;1;
76679;PMS5003;65597;51.520;-0.224;2023-09-19T06:49:19;1;0;
76679;PMS5003;65597;51.520;-0.224;2023-09-19T06:51:44;5;2;
76679;PMS5003;65597;51.520;-0.224;2023-09-19T06:54:10;4;2;
76679;PMS5003;65597;51.520;-0.224;2023-09-19T06:56:35;2;1;
76679;PMS5003;65597;51.520;-0.224;2023-09-19T06:59:01;4;1;
76679;PMS5003;65597;51.520;-0.224;2023-09-19T07:01:26;1;0;
76679;PMS5003;65597;51.520;-0.224;2023-09-19T07:03:52;2;1;
76679;PMS5003;65597;51.520;-0.224;2023-09-19T07:06:16;2;2;
76679;PMS5003;65597;51.520;-0.224;2023-09-19T07:08:42;4;2;
76679;PMS5003;65597;51.520;-0.224;2023-09-19T07:11:07;4;2;
76679;PMS5003;65597;51.520;-0.224;2023-09-19T07:13:32;0;0;
76679;PMS5003;65597;51.520;-0.224;2023-09-19T07:16:00;4;2;
76679;PMS5003;65597;51.520;-0.224;2023-09-19T07:18:24;2;1;
76679;PMS5003;65597;51.520;-0.224;2023-09-19T07:20:49;2;2;
76679;PMS5003;65597;51.520;-0.224;2023-09-19T07:23:16;4;3;
76679;PMS5003;65597;51.520;-0.224;2023-09-19T07:25:40;1;0;
76679;PMS5003;65597;51.520;-0.224;2023-09-19T07:28:06;3;3;
76679;PMS5003;65597;51.520;-0.224;2023-09-19T07:30:31;5;3;
76679;PMS5003;65597;51.520;-0.224;2023-09-19T07:32:56;1;0;
76679;PMS5003;65597;51.520;-0.224;2023-09-19T07:35:21;1;1;
76679;PMS5003;65597;51.520;-0.224;2023-09-19T07:37:46;3;3;
76679;PMS5003;65597;51.520;-0.224;2023-09-19T07:40:13;3;3;
76679;PMS5003;65597;51.520;-0.224;2023-09-19T07:42:37;5;3;
76679;PMS5003;65597;51.520;-0.224;2023-09-19T07:45:08;5;4;
76679;PMS5003;65597;51.520;-0.224;2023-09-19T07:47:28;6;4;
76679;PMS5003;65597;51.520;-0.224;2023-09-19T07:49:53;4;3;
76679;PMS5003;65597;51.520;-0.224;2023-09-19T07:52:18;3;3;
76679;PMS5003;65597;51.520;-0.224;2023-09-19T07:54:44;6;3;
76679;PMS5003;65597;51.520;-0.224;2023-09-19T07:57:09;5;3;
76679;PMS5003;65597;51.520;-0.224;2023-09-19T07:59:35;5;5;
76679;PMS5003;65597;51.520;-0.224;2023-09-19T08:02:00;5;3;
76679;PMS5003;65597;51.520;-0.224;2023-09-19T08:04:25;6;4;
76679;PMS5003;65597;51.520;-0.224;2023-09-19T08:06:51;6;4;
76679;PMS5003;65597;51.520;-0.224;2023-09-19T08:09:16;5;4;
76679;PMS5003;65597;51.520;-0.224;2023-09-19T08:11:41;6;3;
76679;PMS5003;65597;51.520;-0.224;2023-09-19T08:14:07;9;5;
76679;PMS5003;65597;51.520;-0.224;2023-09-19T08:16:34;8;6;
76679;PMS5003;65597;51.520;-0.224;2023-09-19T08:18:57;8;6;
76679;PMS5003;65597;51.520;-0.224;2023-09-19T08:21:23;8;6;
76679;PMS5003;65597;51.520;-0.224;2023-09-19T08:23:48;4;4;
76679;PMS5003;65597;51.520;-0.224;2023-09-19T08:26:14;5;4;
76679;PMS5003;65597;51.520;-0.224;2023-09-19T08:28:40;6;5;
76679;PMS5003;65597;51.520;-0.224;2023-09-19T08:31:05;8;6;
76679;PMS5003;65597;51.520;-0.224;2023-09-19T08:33:31;5;5;
76679;PMS5003;65597;51.520;-0.224;2023-09-19T08:35:55;6;6;
76679;PMS5003;65597;51.520;-0.224;2023-09-19T08:38:20;6;5;
76679;PMS5003;65597;51.520;-0.224;2023-09-19T08:40:48;10;7;
76679;PMS5003;65597;51.520;-0.224;2023-09-19T08:43:11;6;5;
76679;PMS5003;65597;51.520;-0.224;2023-09-19T08:45:36;5;4;
76679;PMS5003;65597;51.520;-0.224;2023-09-19T08:48:04;10;5;
76679;PMS5003;65597;51.520;-0.224;2023-09-19T08:50:27;12;5;
76679;PMS5003;65597;51.520;-0.224;2023-09-19T08:52:52;7;5;
76679;PMS5003;65597;51.520;-0.224;2023-09-19T08:55:17;6;5;
76679;PMS5003;65597;51.520;-0.224;2023-09-19T08:57:42;7;7;
76679;PMS5003;65597;51.520;-0.224;2023-09-19T09:00:08;14;9;
76679;PMS5003;65597;51.520;-0.224;2023-09-19T09:02:33;9;5;
76679;PMS5003;65597;51.520;-0.224;2023-09-19T09:04:59;10;8;
76679;PMS5003;65597;51.520;-0.224;2023-09-19T09:07:24;7;6;
76679;PMS5003;65597;51.520;-0.224;2023-09-19T09:09:49;7;7;
76679;PMS5003;65597;51.520;-0.224;2023-09-19T09:12:14;12;8;
76679;PMS5003;65597;51.520;-0.224;2023-09-19T09:14:40;8;6;
76679;PMS5003;65597;51.520;-0.224;2023-09-19T09:17:06;6;5;
76679;PMS5003;65597;51.520;-0.224;2023-09-19T09:19:30;7;6;
76679;PMS5003;65597;51.520;-0.224;2023-09-19T09:24:27;14;7;
76679;PMS5003;65597;51.520;-0.224;2023-09-19T09:26:47;12;6;
76679;PMS5003;65597;51.520;-0.224;2023-09-19T09:29:13;12;8;
76679;PMS5003;65597;51.520;-0.224;2023-09-19T09:31:38;8;6;
76679;PMS5003;65597;51.520;-0.224;2023-09-19T09:34:03;11;8;
76679;PMS5003;65597;51.520;-0.224;2023-09-19T09:36:33;7;6;
76679;PMS5003;65597;51.520;-0.224;2023-09-19T09:38:54;9;7;
76679;PMS5003;65597;51.520;-0.224;2023-09-19T09:41:19;6;4;
76679;PMS5003;65597;51.520;-0.224;2023-09-19T09:43:44;12;8;
76679;PMS5003;65597;51.520;-0.224;2023-09-19T09:46:10;11;6;
76679;PMS5003;65597;51.520;-0.224;2023-09-19T09:48:34;8;7;
76679;PMS5003;65597;51.520;-0.224;2023-09-19T09:50:59;8;7;
76679;PMS5003;65597;51.520;-0.224;2023-09-19T09:53:25;10;8;
76679;PMS5003;65597;51.520;-0.224;2023-09-19T09:55:59;14;11;
76679;PMS5003;65597;51.520;-0.224;2023-09-19T09:58:16;7;5;
76679;PMS5003;65597;51.520;-0.224;2023-09-19T10:00:44;9;7;
76679;PMS5003;65597;51.520;-0.224;2023-09-19T10:03:09;7;4;
76679;PMS5003;65597;51.520;-0.224;2023-09-19T10:05:33;9;6;
76679;PMS5003;65597;51.520;-0.224;2023-09-19T10:07:57;9;8;
76679;PMS5003;65597;51.520;-0.224;2023-09-19T10:10:30;9;6;
76679;PMS5003;65597;51.520;-0.224;2023-09-19T10:12:47;11;7;
76679;PMS5003;65597;51.520;-0.224;2023-09-19T10:15:12;8;7;
76679;PMS5003;65597;51.520;-0.224;2023-09-19T10:17:39;13;8;
76679;PMS5003;65597;51.520;-0.224;2023-09-19T10:20:03;11;7;
76679;PMS5003;65597;51.520;-0.224;2023-09-19T10:22:28;8;6;
76679;PMS5003;65597;51.520;-0.224;2023-09-19T10:24:53;10;9;
76679;PMS5003;65597;51.520;-0.224;2023-09-19T10:27:19;7;5;
76679;PMS5003;65597;51.520;-0.224;2023-09-19T10:29:44;10;8;
76679;PMS5003;65597;51.520;-0.224;2023-09-19T10:32:10;8;6;
76679;PMS5003;65597;51.520;-0.224;2023-09-19T10:34:35;8;5;
76679;PMS5003;65597;51.520;-0.224;2023-09-19T10:37:00;12;7;
76679;PMS5003;65597;51.520;-0.224;2023-09-19T10:39:26;7;6;
76679;PMS5003;65597;51.520;-0.224;2023-09-19T10:41:53;12;10;
76679;PMS5003;65597;51.520;-0.224;2023-09-19T10:44:16;10;8;
76679;PMS5003;65597;51.520;-0.224;2023-09-19T10:46:42;9;8;
76679;PMS5003;65597;51.520;-0.224;2023-09-19T10:49:07;7;6;
76679;PMS5003;65597;51.520;-0.224;2023-09-19T10:51:37;11;8;
76679;PMS5003;65597;51.520;-0.224;2023-09-19T10:54:00;10;7;
76679;PMS5003;65597;51.520;-0.224;2023-09-19T10:56:24;12;9;
76679;PMS5003;65597;51.520;-0.224;2023-09-19T10:58:48;8;7;
76679;PMS5003;65597;51.520;-0.224;2023-09-19T11:01:14;8;7;
76679;PMS5003;65597;51.520;-0.224;2023-09-19T11:03:39;9;7;
76679;PMS5003;65597;51.520;-0.224;2023-09-19T11:06:05;6;5;
76679;PMS5003;65597;51.520;-0.224;2023-09-19T11:08:30;7;6;
76679;PMS5003;65597;51.520;-0.224;2023-09-19T11:10:55;6;4;
76679;PMS5003;65597;51.520;-0.224;2023-09-19T11:13:23;8;4;
76679;PMS5003;65597;51.520;-0.224;2023-09-19T11:20:36;7;7;
76679;PMS5003;65597;51.520;-0.224;2023-09-19T11:30:26;6;4;
76679;PMS5003;65597;51.520;-0.224;2023-09-19T11:35:08;7;4;
76679;PMS5003;65597;51.520;-0.224;2023-09-19T11:40:05;8;4;
76679;PMS5003;65597;51.520;-0.224;2023-09-19T11:44:49;5;4;
76679;PMS5003;65597;51.520;-0.224;2023-09-19T11:47:14;7;6;
76679;PMS5003;65597;51.520;-0.224;2023-09-19T11:49:40;5;4;
76679;PMS5003;65597;51.520;-0.224;2023-09-19T11:52:05;8;6;
76679;PMS5003;65597;51.520;-0.224;2023-09-19T11:54:31;5;4;
76679;PMS5003;65597;51.520;-0.224;2023-09-19T11:56:55;7;6;
76679;PMS5003;65597;51.520;-0.224;2023-09-19T11:59:20;11;9;
76679;PMS5003;65597;51.520;-0.224;2023-09-19T12:01:52;5;4;
76679;PMS5003;65597;51.520;-0.224;2023-09-19T12:04:11;5;4;
76679;PMS5003;65597;51.520;-0.224;2023-09-19T12:06:36;12;7;
76679;PMS5003;65597;51.520;-0.224;2023-09-19T12:09:02;7;6;
76679;PMS5003;65597;51.520;-0.224;2023-09-19T12:11:28;5;4;
76679;PMS5003;65597;51.520;-0.224;2023-09-19T12:13:52;7;4;
76679;PMS5003;65597;51.520;-0.224;2023-09-19T12:16:18;6;5;
76679;PMS5003;65597;51.520;-0.224;2023-09-19T12:18:45;6;4;
76679;PMS5003;65597;51.520;-0.224;2023-09-19T12:21:08;4;4;
76679;PMS5003;65597;51.520;-0.224;2023-09-19T12:23:33;5;4;
76679;PMS5003;65597;51.520;-0.224;2023-09-19T12:25:58;7;5;
76679;PMS5003;65597;51.520;-0.224;2023-09-19T12:28:24;5;5;
76679;PMS5003;65597;51.520;-0.224;2023-09-19T12:30:49;9;7;
76679;PMS5003;65597;51.520;-0.224;2023-09-19T12:33:15;6;6;
76679;PMS5003;65597;51.520;-0.224;2023-09-19T12:35:40;8;6;
76679;PMS5003;65597;51.520;-0.224;2023-09-19T12:38:05;7;4;
76679;PMS5003;65597;51.520;-0.224;2023-09-19T12:40:31;5;5;
76679;PMS5003;65597;51.520;-0.224;2023-09-19T12:42:56;8;7;
76679;PMS5003;65597;51.520;-0.224;2023-09-19T12:45:21;5;4;
76679;PMS5003;65597;51.520;-0.224;2023-09-19T12:50:12;4;3;
76679;PMS5003;65597;51.520;-0.224;2023-09-19T12:52:37;7;6;
76679;PMS5003;65597;51.520;-0.224;2023-09-19T12:55:03;10;6;
76679;PMS5003;65597;51.520;-0.224;2023-09-19T12:57:27;3;2;
76679;PMS5003;65597;51.520;-0.224;2023-09-19T12:59:53;4;4;
76679;PMS5003;65597;51.520;-0.224;2023-09-19T13:02:18;4;3;
76679;PMS5003;65597;51.520;-0.224;2023-09-19T13:07:10;6;5;
76679;PMS5003;65597;51.520;-0.224;2023-09-19T13:09:34;5;4;
76679;PMS5003;65597;51.520;-0.224;2023-09-19T13:11:59;5;4;
76679;PMS5003;65597;51.520;-0.224;2023-09-19T13:14:25;5;5;
76679;PMS5003;65597;51.520;-0.224;2023-09-19T13:16:53;4;3;
76679;PMS5003;65597;51.520;-0.224;2023-09-19T13:21:41;5;4;
76679;PMS5003;65597;51.520;-0.224;2023-09-19T13:26:31;7;5;
76679;PMS5003;65597;51.520;-0.224;2023-09-19T13:28:57;6;4;
76679;PMS5003;65597;51.520;-0.224;2023-09-19T13:31:22;5;5;
76679;PMS5003;65597;51.520;-0.224;2023-09-19T13:33:47;5;4;
76679;PMS5003;65597;51.520;-0.224;2023-09-19T13:36:12;6;5;
76679;PMS5003;65597;51.520;-0.224;2023-09-19T13:38:38;5;5;
76679;PMS5003;65597;51.520;-0.224;2023-09-19T13:41:03;5;5;
76679;PMS5003;65597;51.520;-0.224;2023-09-19T13:43:29;6;4;
76679;PMS5003;65597;51.520;-0.224;2023-09-19T13:45:54;5;5;
76679;PMS5003;65597;51.520;-0.224;2023-09-19T13:48:19;5;5;
76679;PMS5003;65597;51.520;-0.224;2023-09-19T13:50:44;4;3;
76679;PMS5003;65597;51.520;-0.224;2023-09-19T13:53:10;5;4;
76679;PMS5003;65597;51.520;-0.224;2023-09-19T13:55:35;6;4;
76679;PMS5003;65597;51.520;-0.224;2023-09-19T13:58:00;5;5;
76679;PMS5003;65597;51.520;-0.224;2023-09-19T14:00:25;4;4;
76679;PMS5003;65597;51.520;-0.224;2023-09-19T14:02:51;4;4;
76679;PMS5003;65597;51.520;-0.224;2023-09-19T14:05:16;5;3;
76679;PMS5003;65597;51.520;-0.224;2023-09-19T14:07:44;4;3;
76679;PMS5003;65597;51.520;-0.224;2023-09-19T14:10:06;4;3;
76679;PMS5003;65597;51.520;-0.224;2023-09-19T14:12:32;3;2;
76679;PMS5003;65597;51.520;-0.224;2023-09-19T14:14:57;6;5;
76679;PMS5003;65597;51.520;-0.224;2023-09-19T14:17:22;5;4;
76679;PMS5003;65597;51.520;-0.224;2023-09-19T14:19:49;6;5;
76679;PMS5003;65597;51.520;-0.224;2023-09-19T14:22:13;5;4;
76679;PMS5003;65597;51.520;-0.224;2023-09-19T14:24:38;2;2;
76679;PMS5003;65597;51.520;-0.224;2023-09-19T14:27:04;5;5;
76679;PMS5003;65597;51.520;-0.224;2023-09-19T14:29:29;4;3;
76679;PMS5003;65597;51.520;-0.224;2023-09-19T14:31:54;5;5;
76679;PMS5003;65597;51.520;-0.224;2023-09-19T14:34:19;8;4;
76679;PMS5003;65597;51.520;-0.224;2023-09-19T14:36:44;6;4;
76679;PMS5003;65597;51.520;-0.224;2023-09-19T14:39:09;3;3;
76679;PMS5003;65597;51.520;-0.224;2023-09-19T14:41:35;2;2;
76679;PMS5003;65597;51.520;-0.224;2023-09-19T14:44:02;4;3;
76679;PMS5003;65597;51.520;-0.224;2023-09-19T14:46:26;12;8;
76679;PMS5003;65597;51.520;-0.224;2023-09-19T14:48:51;6;4;
76679;PMS5003;65597;51.520;-0.224;2023-09-19T14:51:16;5;4;
76679;PMS5003;65597;51.520;-0.224;2023-09-19T14:53:42;6;5;
76679;PMS5003;65597;51.520;-0.224;2023-09-19T14:56:08;5;4;
76679;PMS5003;65597;51.520;-0.224;2023-09-19T14:58:33;4;4;
76679;PMS5003;65597;51.520;-0.224;2023-09-19T15:01:02;3;3;
76679;PMS5003;65597;51.520;-0.224;2023-09-19T15:03:23;4;3;
76679;PMS5003;65597;51.520;-0.224;2023-09-19T15:05:48;4;4;
76679;PMS5003;65597;51.520;-0.224;2023-09-19T15:08:16;4;2;
76679;PMS5003;65597;51.520;-0.224;2023-09-19T15:10:39;4;3;
76679;PMS5003;65597;51.520;-0.224;2023-09-19T15:13:04;3;2;
76679;PMS5003;65597;51.520;-0.224;2023-09-19T15:15:31;3;3;
76679;PMS5003;65597;51.520;-0.224;2023-09-19T15:17:55;3;3;
76679;PMS5003;65597;51.520;-0.224;2023-09-19T15:20:22;2;2;
76679;PMS5003;65597;51.520;-0.224;2023-09-19T15:22:46;3;3;
76679;PMS5003;65597;51.520;-0.224;2023-09-19T15:25:11;7;5;
76679;PMS5003;65597;51.520;-0.224;2023-09-19T15:27:36;4;3;
76679;PMS5003;65597;51.520;-0.224;2023-09-19T15:30:02;4;4;
76679;PMS5003;65597;51.520;-0.224;2023-09-19T15:32:28;4;2;
76679;PMS5003;65597;51.520;-0.224;2023-09-19T15:34:52;4;3;
76679;PMS5003;65597;51.520;-0.224;2023-09-19T15:37:18;3;2;
76679;PMS5003;65597;51.520;-0.224;2023-09-19T15:39:43;3;2;
76679;PMS5003;65597;51.520;-0.224;2023-09-19T15:42:08;4;3;
76679;PMS5003;65597;51.520;-0.224;2023-09-19T15:44:34;2;2;
76679;PMS5003;65597;51.520;-0.224;2023-09-19T15:46:58;5;3;
76679;PMS5003;65597;51.520;-0.224;2023-09-19T15:49:24;3;2;
76679;PMS5003;65597;51.520;-0.224;2023-09-19T15:51:49;2;2;
76679;PMS5003;65597;51.520;-0.224;2023-09-19T15:54:15;3;2;
76679;PMS5003;65597;51.520;-0.224;2023-09-19T15:56:41;9;4;
76679;PMS5003;65597;51.520;-0.224;2023-09-19T15:59:05;4;4;
76679;PMS5003;65597;51.520;-0.224;2023-09-19T16:01:30;2;2;
76679;PMS5003;65597;51.520;-0.224;2023-09-19T16:03:55;3;3;
76679;PMS5003;65597;51.520;-0.224;2023-09-19T16:06:21;5;4;
76679;PMS5003;65597;51.520;-0.224;2023-09-19T16:08:48;3;3;
76679;PMS5003;65597;51.520;-0.224;2023-09-19T16:11:12;6;4;
76679;PMS5003;65597;51.520;-0.224;2023-09-19T16:13:37;6;5;
76679;PMS5003;65597;51.520;-0.224;2023-09-19T16:16:02;4;3;
76679;PMS5003;65597;51.520;-0.224;2023-09-19T16:18:27;5;4;
76679;PMS5003;65597;51.520;-0.224;2023-09-19T16:23:18;4;4;
76679;PMS5003;65597;51.520;-0.224;2023-09-19T16:25:43;7;5;
76679;PMS5003;65597;51.520;-0.224;2023-09-19T16:28:08;4;4;
76679;PMS5003;65597;51.520;-0.224;2023-09-19T16:30:34;4;4;
76679;PMS5003;65597;51.520;-0.224;2023-09-19T16:33:00;6;5;
76679;PMS5003;65597;51.520;-0.224;2023-09-19T16:35:24;6;5;
76679;PMS5003;65597;51.520;-0.224;2023-09-19T16:37:50;5;3;
76679;PMS5003;65597;51.520;-0.224;2023-09-19T16:40:15;6;5;
76679;PMS5003;65597;51.520;-0.224;2023-09-19T16:42:40;10;6;
76679;PMS5003;65597;51.520;-0.224;2023-09-19T16:45:06;5;4;
76679;PMS5003;65597;51.520;-0.224;2023-09-19T16:47:30;8;7;
76679;PMS5003;65597;51.520;-0.224;2023-09-19T16:49:55;10;6;
76679;PMS5003;65597;51.520;-0.224;2023-09-19T16:52:21;5;4;